PAL910 RPMD-RPLL
Flight info
| Callsign | PAL910 |
|---|---|
| Flight time | 1h 21m |
| Altitude | 38000 |
| Route | ANKIN3R ANKIN B473 LAIYA LAIYA3R |
| Aircraft | B77W/H-SDE1E2E3FGHIJ2J3J4J5M1RWXY/LB1D1 |
Departure
| Time | 2026-05-07 06:18 |
|---|---|
| Airport | Francisco Bangoy International Airport (RPMD) |
Arrival
| Time | 2026-05-07 07:39 |
|---|---|
| Airport | Ninoy Aquino International Airport (RPLL) |
| Time | Latitude | Longitude | Altitude | Speed | Heading |
|---|---|---|---|---|---|
| 2026-05-07 05:47 | 7.12864 | 125.64484 | 123 ft | 0 kts | 319° |
| 2026-05-07 05:57 | 7.12853 | 125.64494 | 124 ft | 2 kts | 319° |
| 2026-05-07 05:57 | 7.12841 | 125.64503 | 124 ft | 2 kts | 319° |
| 2026-05-07 05:58 | 7.12830 | 125.64513 | 124 ft | 1 kts | 319° |
| 2026-05-07 05:58 | 7.12823 | 125.64520 | 124 ft | 2 kts | 304° |
| 2026-05-07 05:58 | 7.12818 | 125.64534 | 124 ft | 2 kts | 266° |
| 2026-05-07 05:58 | 7.12822 | 125.64548 | 124 ft | 1 kts | 234° |
| 2026-05-07 05:59 | 7.12798 | 125.64518 | 124 ft | 7 kts | 228° |
| 2026-05-07 05:59 | 7.12768 | 125.64484 | 124 ft | 4 kts | 229° |
| 2026-05-07 05:59 | 7.12759 | 125.64474 | 124 ft | 0 kts | 229° |
| 2026-05-07 06:04 | 7.12757 | 125.64471 | 124 ft | 3 kts | 228° |
| 2026-05-07 06:05 | 7.12732 | 125.64452 | 124 ft | 4 kts | 203° |
| 2026-05-07 06:05 | 7.12702 | 125.64452 | 124 ft | 4 kts | 160° |
| 2026-05-07 06:05 | 7.12676 | 125.64468 | 124 ft | 4 kts | 142° |
| 2026-05-07 06:05 | 7.12658 | 125.64481 | 124 ft | 0 kts | 140° |
| 2026-05-07 06:06 | 7.12654 | 125.64484 | 124 ft | 2 kts | 140° |
| 2026-05-07 06:06 | 7.12639 | 125.64497 | 124 ft | 2 kts | 139° |
| 2026-05-07 06:06 | 7.12631 | 125.64504 | 124 ft | 0 kts | 139° |
| 2026-05-07 06:07 | 7.12628 | 125.64507 | 124 ft | 1 kts | 139° |
| 2026-05-07 06:08 | 7.12615 | 125.64518 | 124 ft | 3 kts | 139° |
| 2026-05-07 06:08 | 7.12599 | 125.64532 | 124 ft | 3 kts | 140° |
| 2026-05-07 06:08 | 7.12581 | 125.64546 | 124 ft | 3 kts | 148° |
| 2026-05-07 06:08 | 7.12552 | 125.64553 | 124 ft | 4 kts | 184° |
| 2026-05-07 06:09 | 7.12525 | 125.64539 | 124 ft | 4 kts | 222° |
| 2026-05-07 06:09 | 7.12496 | 125.64511 | 124 ft | 6 kts | 226° |
| 2026-05-07 06:09 | 7.12466 | 125.64478 | 124 ft | 6 kts | 229° |
| 2026-05-07 06:09 | 7.12435 | 125.64442 | 124 ft | 6 kts | 229° |
| 2026-05-07 06:10 | 7.12404 | 125.64406 | 124 ft | 6 kts | 230° |
| 2026-05-07 06:10 | 7.12372 | 125.64369 | 124 ft | 7 kts | 228° |
| 2026-05-07 06:10 | 7.12339 | 125.64332 | 124 ft | 7 kts | 230° |
| 2026-05-07 06:10 | 7.12307 | 125.64294 | 124 ft | 7 kts | 229° |
| 2026-05-07 06:11 | 7.12273 | 125.64254 | 124 ft | 8 kts | 230° |
| 2026-05-07 06:11 | 7.12231 | 125.64205 | 124 ft | 9 kts | 230° |
| 2026-05-07 06:11 | 7.12191 | 125.64158 | 124 ft | 8 kts | 228° |
| 2026-05-07 06:11 | 7.12150 | 125.64111 | 124 ft | 8 kts | 229° |
| 2026-05-07 06:12 | 7.12111 | 125.64066 | 124 ft | 8 kts | 230° |
| 2026-05-07 06:12 | 7.12073 | 125.64022 | 124 ft | 8 kts | 228° |
| 2026-05-07 06:12 | 7.12035 | 125.63978 | 124 ft | 8 kts | 230° |
| 2026-05-07 06:12 | 7.11997 | 125.63934 | 124 ft | 8 kts | 230° |
| 2026-05-07 06:13 | 7.11960 | 125.63890 | 124 ft | 8 kts | 229° |
| 2026-05-07 06:13 | 7.11924 | 125.63847 | 124 ft | 7 kts | 228° |
| 2026-05-07 06:13 | 7.11886 | 125.63806 | 124 ft | 7 kts | 229° |
| 2026-05-07 06:13 | 7.11851 | 125.63764 | 124 ft | 7 kts | 230° |
| 2026-05-07 06:14 | 7.11816 | 125.63723 | 124 ft | 7 kts | 229° |
| 2026-05-07 06:14 | 7.11780 | 125.63682 | 124 ft | 7 kts | 228° |
| 2026-05-07 06:14 | 7.11766 | 125.63664 | 124 ft | 3 kts | 235° |
| 2026-05-07 06:14 | 7.11758 | 125.63641 | 124 ft | 3 kts | 261° |
| 2026-05-07 06:15 | 7.11757 | 125.63614 | 124 ft | 3 kts | 269° |
| 2026-05-07 06:15 | 7.11755 | 125.63586 | 124 ft | 4 kts | 264° |
| 2026-05-07 06:15 | 7.11746 | 125.63558 | 124 ft | 4 kts | 238° |
| 2026-05-07 06:15 | 7.11726 | 125.63541 | 124 ft | 3 kts | 197° |
| 2026-05-07 06:16 | 7.11701 | 125.63544 | 124 ft | 3 kts | 155° |
| 2026-05-07 06:16 | 7.11693 | 125.63554 | 124 ft | 1 kts | 106° |
| 2026-05-07 06:16 | 7.11693 | 125.63557 | 124 ft | 0 kts | 96° |
| 2026-05-07 06:16 | 7.11694 | 125.63567 | 124 ft | 3 kts | 76° |
| 2026-05-07 06:17 | 7.11708 | 125.63593 | 124 ft | 7 kts | 53° |
| 2026-05-07 06:17 | 7.11817 | 125.63724 | 124 ft | 60 kts | 49° |
| 2026-05-07 06:17 | 7.12300 | 125.64285 | 125 ft | 150 kts | 50° |
| 2026-05-07 06:17 | 7.13102 | 125.65215 | 437 ft | 199 kts | 49° |
| 2026-05-07 06:18 | 7.13996 | 125.66187 | 1759 ft | 185 kts | 44° |
| 2026-05-07 06:18 | 7.15057 | 125.66908 | 2509 ft | 196 kts | 26° |
| 2026-05-07 06:18 | 7.16433 | 125.67255 | 3088 ft | 218 kts | 2° |
| 2026-05-07 06:18 | 7.17995 | 125.67085 | 3743 ft | 237 kts | 352° |
| 2026-05-07 06:19 | 7.19689 | 125.66808 | 4463 ft | 255 kts | 352° |
| 2026-05-07 06:19 | 7.21501 | 125.66506 | 5254 ft | 273 kts | 352° |
| 2026-05-07 06:19 | 7.23391 | 125.66190 | 6322 ft | 277 kts | 352° |
| 2026-05-07 06:19 | 7.25274 | 125.65876 | 7422 ft | 279 kts | 352° |
| 2026-05-07 06:20 | 7.27195 | 125.65555 | 8420 ft | 284 kts | 352° |
| 2026-05-07 06:20 | 7.29135 | 125.65231 | 9431 ft | 288 kts | 353° |
| 2026-05-07 06:20 | 7.31113 | 125.64900 | 10397 ft | 294 kts | 353° |
| 2026-05-07 06:20 | 7.33201 | 125.64552 | 11094 ft | 310 kts | 353° |
| 2026-05-07 06:21 | 7.35386 | 125.64189 | 11759 ft | 328 kts | 353° |
| 2026-05-07 06:21 | 7.37701 | 125.63803 | 12442 ft | 344 kts | 353° |
| 2026-05-07 06:21 | 7.40099 | 125.63403 | 13122 ft | 359 kts | 353° |
| 2026-05-07 06:21 | 7.42603 | 125.62918 | 13863 ft | 373 kts | 347° |
| 2026-05-07 06:22 | 7.45060 | 125.61988 | 14723 ft | 384 kts | 336° |
| 2026-05-07 06:22 | 7.49348 | 125.58689 | 16545 ft | 400 kts | 313° |
| 2026-05-07 06:22 | 7.51112 | 125.56486 | 17366 ft | 407 kts | 310° |
| 2026-05-07 06:23 | 7.52860 | 125.54205 | 18237 ft | 412 kts | 309° |
| 2026-05-07 06:23 | 7.54597 | 125.51943 | 19136 ft | 415 kts | 309° |
| 2026-05-07 06:23 | 7.56387 | 125.49621 | 19941 ft | 420 kts | 310° |
| 2026-05-07 06:23 | 7.58196 | 125.47282 | 20704 ft | 426 kts | 309° |
| 2026-05-07 06:24 | 7.59396 | 125.45731 | 21198 ft | 430 kts | 310° |
| 2026-05-07 06:25 | 7.69374 | 125.32854 | 25364 ft | 448 kts | 309° |
| 2026-05-07 06:25 | 7.71315 | 125.30349 | 26051 ft | 453 kts | 309° |
| 2026-05-07 06:25 | 7.73248 | 125.27855 | 26760 ft | 457 kts | 309° |
| 2026-05-07 06:26 | 7.75197 | 125.25339 | 27471 ft | 460 kts | 309° |
| 2026-05-07 06:26 | 7.77176 | 125.22786 | 28211 ft | 462 kts | 309° |
| 2026-05-07 06:26 | 7.79173 | 125.20207 | 28965 ft | 464 kts | 309° |
| 2026-05-07 06:26 | 7.81163 | 125.17639 | 29729 ft | 466 kts | 309° |
| 2026-05-07 06:27 | 7.83130 | 125.15099 | 30618 ft | 464 kts | 309° |
| 2026-05-07 06:27 | 7.85122 | 125.12525 | 31540 ft | 460 kts | 309° |
| 2026-05-07 06:27 | 7.87090 | 125.09984 | 31907 ft | 461 kts | 309° |
| 2026-05-07 06:27 | 7.89041 | 125.07462 | 31933 ft | 458 kts | 309° |
| 2026-05-07 06:28 | 7.93606 | 125.01564 | 31917 ft | 455 kts | 309° |
| 2026-05-07 06:28 | 7.96964 | 124.97456 | 31937 ft | 455 kts | 316° |
| 2026-05-07 06:29 | 8.01788 | 124.93335 | 31969 ft | 454 kts | 322° |
| 2026-05-07 06:29 | 8.06714 | 124.89329 | 31989 ft | 455 kts | 322° |
| 2026-05-07 06:30 | 8.11630 | 124.85326 | 31986 ft | 456 kts | 322° |
| 2026-05-07 06:30 | 8.16575 | 124.81299 | 31979 ft | 456 kts | 322° |
| 2026-05-07 06:31 | 8.21542 | 124.77251 | 31961 ft | 458 kts | 322° |
| 2026-05-07 06:31 | 8.26466 | 124.73235 | 31934 ft | 457 kts | 322° |
| 2026-05-07 06:32 | 8.31411 | 124.69202 | 31907 ft | 458 kts | 322° |
| 2026-05-07 06:32 | 8.36372 | 124.65154 | 31878 ft | 458 kts | 322° |
| 2026-05-07 06:33 | 8.41375 | 124.61134 | 31854 ft | 457 kts | 326° |
| 2026-05-07 06:33 | 8.46819 | 124.57870 | 31840 ft | 457 kts | 331° |
| 2026-05-07 06:34 | 8.52357 | 124.54681 | 31827 ft | 457 kts | 331° |
| 2026-05-07 06:34 | 8.57888 | 124.51493 | 31816 ft | 458 kts | 331° |
| 2026-05-07 06:35 | 8.63458 | 124.48280 | 31809 ft | 459 kts | 331° |
| 2026-05-07 06:35 | 8.69000 | 124.45081 | 31801 ft | 459 kts | 331° |
| 2026-05-07 06:36 | 8.74560 | 124.41869 | 31796 ft | 458 kts | 331° |
| 2026-05-07 06:36 | 8.80113 | 124.38660 | 31792 ft | 460 kts | 331° |
| 2026-05-07 06:37 | 8.85641 | 124.35465 | 31790 ft | 460 kts | 331° |
| 2026-05-07 06:37 | 8.91223 | 124.32237 | 31786 ft | 459 kts | 331° |
| 2026-05-07 06:38 | 8.96773 | 124.29026 | 31785 ft | 460 kts | 331° |
| 2026-05-07 06:38 | 9.02321 | 124.25816 | 31779 ft | 461 kts | 331° |
| 2026-05-07 06:39 | 9.07906 | 124.22578 | 31772 ft | 462 kts | 331° |
| 2026-05-07 06:39 | 9.13517 | 124.19323 | 31769 ft | 463 kts | 331° |
| 2026-05-07 06:40 | 9.19105 | 124.16080 | 31769 ft | 463 kts | 331° |
| 2026-05-07 06:40 | 9.24704 | 124.12830 | 31771 ft | 463 kts | 331° |
| 2026-05-07 06:41 | 9.30297 | 124.09583 | 31771 ft | 463 kts | 331° |
| 2026-05-07 06:41 | 9.35905 | 124.06324 | 31772 ft | 465 kts | 331° |
| 2026-05-07 06:42 | 9.41559 | 124.03054 | 31776 ft | 467 kts | 331° |
| 2026-05-07 06:42 | 9.47186 | 123.99811 | 31773 ft | 465 kts | 331° |
| 2026-05-07 06:43 | 9.52820 | 123.96548 | 31777 ft | 465 kts | 331° |
| 2026-05-07 06:43 | 9.58429 | 123.93291 | 31787 ft | 466 kts | 331° |
| 2026-05-07 06:44 | 9.64100 | 123.89996 | 31794 ft | 467 kts | 330° |
| 2026-05-07 06:44 | 9.69721 | 123.86730 | 31794 ft | 466 kts | 330° |
| 2026-05-07 06:45 | 9.75372 | 123.83446 | 31793 ft | 467 kts | 330° |
| 2026-05-07 06:45 | 9.80072 | 123.80713 | 31797 ft | 467 kts | 330° |
| 2026-05-07 06:46 | 9.86645 | 123.76890 | 31793 ft | 466 kts | 330° |
| 2026-05-07 06:46 | 9.92275 | 123.73613 | 31790 ft | 465 kts | 330° |
| 2026-05-07 06:47 | 9.97872 | 123.70348 | 31798 ft | 466 kts | 330° |
| 2026-05-07 06:47 | 10.03526 | 123.67050 | 31801 ft | 466 kts | 330° |
| 2026-05-07 06:48 | 10.09179 | 123.63751 | 31808 ft | 466 kts | 330° |
| 2026-05-07 06:48 | 10.14808 | 123.60465 | 31813 ft | 465 kts | 330° |
| 2026-05-07 06:49 | 10.20429 | 123.57182 | 31817 ft | 466 kts | 330° |
| 2026-05-07 06:49 | 10.26059 | 123.53893 | 31812 ft | 466 kts | 330° |
| 2026-05-07 06:50 | 10.32648 | 123.50043 | 31809 ft | 468 kts | 330° |
| 2026-05-07 06:50 | 10.37338 | 123.47306 | 31813 ft | 466 kts | 330° |
| 2026-05-07 06:51 | 10.42987 | 123.44007 | 31825 ft | 466 kts | 330° |
| 2026-05-07 06:51 | 10.48606 | 123.40724 | 31834 ft | 466 kts | 330° |
| 2026-05-07 06:52 | 10.55187 | 123.36878 | 31847 ft | 467 kts | 330° |
| 2026-05-07 06:52 | 10.59906 | 123.34119 | 31854 ft | 467 kts | 330° |
| 2026-05-07 06:53 | 10.65574 | 123.30808 | 31860 ft | 467 kts | 330° |
| 2026-05-07 06:53 | 10.71222 | 123.27518 | 31871 ft | 467 kts | 329° |
| 2026-05-07 06:54 | 10.76868 | 123.24220 | 31880 ft | 468 kts | 329° |
| 2026-05-07 06:54 | 10.82512 | 123.20910 | 31856 ft | 467 kts | 329° |
| 2026-05-07 06:55 | 10.89091 | 123.17049 | 31825 ft | 466 kts | 329° |
| 2026-05-07 06:55 | 10.94698 | 123.13757 | 31807 ft | 466 kts | 329° |
| 2026-05-07 06:56 | 10.99393 | 123.11000 | 31793 ft | 466 kts | 329° |
| 2026-05-07 06:56 | 11.05983 | 123.07131 | 31790 ft | 466 kts | 329° |
| 2026-05-07 06:57 | 11.10676 | 123.04375 | 31790 ft | 467 kts | 329° |
| 2026-05-07 06:57 | 11.16280 | 123.01083 | 31792 ft | 467 kts | 329° |
| 2026-05-07 06:58 | 11.21944 | 122.97753 | 31796 ft | 467 kts | 329° |
| 2026-05-07 06:58 | 11.27580 | 122.94438 | 31807 ft | 467 kts | 329° |
| 2026-05-07 06:59 | 11.33189 | 122.91138 | 31809 ft | 466 kts | 329° |
| 2026-05-07 06:59 | 11.39754 | 122.87272 | 31807 ft | 466 kts | 329° |
| 2026-05-07 07:00 | 11.44455 | 122.84502 | 31811 ft | 466 kts | 329° |
| 2026-05-07 07:00 | 11.50078 | 122.81186 | 31808 ft | 466 kts | 329° |
| 2026-05-07 07:01 | 11.55686 | 122.77876 | 31808 ft | 465 kts | 329° |
| 2026-05-07 07:01 | 11.61253 | 122.74559 | 31804 ft | 465 kts | 326° |
| 2026-05-07 07:02 | 11.66678 | 122.70884 | 31809 ft | 464 kts | 325° |
| 2026-05-07 07:02 | 11.72946 | 122.66625 | 31808 ft | 463 kts | 325° |
| 2026-05-07 07:03 | 11.77418 | 122.63599 | 31809 ft | 463 kts | 325° |
| 2026-05-07 07:03 | 11.82818 | 122.59951 | 31816 ft | 464 kts | 325° |
| 2026-05-07 07:04 | 11.88193 | 122.56323 | 31819 ft | 463 kts | 325° |
| 2026-05-07 07:04 | 11.93602 | 122.52671 | 31826 ft | 464 kts | 325° |
| 2026-05-07 07:05 | 11.98980 | 122.49040 | 31827 ft | 464 kts | 325° |
| 2026-05-07 07:05 | 12.04383 | 122.45392 | 31822 ft | 463 kts | 326° |
| 2026-05-07 07:06 | 12.09780 | 122.41747 | 31818 ft | 463 kts | 325° |
| 2026-05-07 07:06 | 12.15132 | 122.38129 | 31812 ft | 462 kts | 325° |
| 2026-05-07 07:07 | 12.20526 | 122.34482 | 31811 ft | 462 kts | 325° |
| 2026-05-07 07:07 | 12.25868 | 122.30868 | 31813 ft | 462 kts | 325° |
| 2026-05-07 07:08 | 12.31241 | 122.27231 | 31812 ft | 462 kts | 325° |
| 2026-05-07 07:08 | 12.36628 | 122.23583 | 31813 ft | 462 kts | 325° |
| 2026-05-07 07:09 | 12.41977 | 122.19888 | 31814 ft | 463 kts | 324° |
| 2026-05-07 07:09 | 12.47309 | 122.16178 | 31811 ft | 461 kts | 324° |
| 2026-05-07 07:10 | 12.52618 | 122.12486 | 31808 ft | 461 kts | 324° |
| 2026-05-07 07:10 | 12.57925 | 122.08796 | 31813 ft | 461 kts | 324° |
| 2026-05-07 07:11 | 12.63232 | 122.05105 | 31818 ft | 460 kts | 324° |
| 2026-05-07 07:11 | 12.69428 | 122.00794 | 31820 ft | 461 kts | 324° |
| 2026-05-07 07:12 | 12.73845 | 121.97718 | 31826 ft | 461 kts | 324° |
| 2026-05-07 07:12 | 12.79155 | 121.94020 | 31825 ft | 461 kts | 324° |
| 2026-05-07 07:13 | 12.84467 | 121.90318 | 31828 ft | 461 kts | 324° |
| 2026-05-07 07:13 | 12.89737 | 121.86643 | 31826 ft | 459 kts | 324° |
| 2026-05-07 07:14 | 12.95912 | 121.82337 | 31829 ft | 458 kts | 324° |
| 2026-05-07 07:14 | 13.00303 | 121.79272 | 31831 ft | 458 kts | 324° |
| 2026-05-07 07:15 | 13.05592 | 121.75579 | 31834 ft | 458 kts | 324° |
| 2026-05-07 07:15 | 13.11736 | 121.71285 | 31834 ft | 458 kts | 324° |
| 2026-05-07 07:16 | 13.17010 | 121.67599 | 31819 ft | 456 kts | 324° |
| 2026-05-07 07:16 | 13.18758 | 121.66376 | 31561 ft | 452 kts | 324° |
| 2026-05-07 07:16 | 13.21356 | 121.64559 | 30803 ft | 454 kts | 324° |
| 2026-05-07 07:17 | 13.23962 | 121.62736 | 30236 ft | 451 kts | 325° |
| 2026-05-07 07:17 | 13.26544 | 121.60928 | 29780 ft | 446 kts | 325° |
| 2026-05-07 07:17 | 13.29938 | 121.58553 | 29120 ft | 440 kts | 326° |
| 2026-05-07 07:17 | 13.31610 | 121.57382 | 28781 ft | 438 kts | 326° |
| 2026-05-07 07:18 | 13.34122 | 121.55621 | 28262 ft | 435 kts | 326° |
| 2026-05-07 07:18 | 13.37418 | 121.53312 | 27592 ft | 430 kts | 326° |
| 2026-05-07 07:18 | 13.39888 | 121.51581 | 27079 ft | 427 kts | 326° |
| 2026-05-07 07:18 | 13.41532 | 121.50428 | 26743 ft | 425 kts | 326° |
| 2026-05-07 07:19 | 13.43967 | 121.48721 | 26234 ft | 421 kts | 326° |
| 2026-05-07 07:19 | 13.47202 | 121.46452 | 25553 ft | 417 kts | 326° |
| 2026-05-07 07:19 | 13.49575 | 121.44788 | 25081 ft | 414 kts | 327° |
| 2026-05-07 07:19 | 13.51934 | 121.43132 | 24946 ft | 400 kts | 326° |
| 2026-05-07 07:20 | 13.53444 | 121.42072 | 24890 ft | 392 kts | 327° |
| 2026-05-07 07:20 | 13.56393 | 121.40002 | 24724 ft | 376 kts | 327° |
| 2026-05-07 07:20 | 13.58528 | 121.38481 | 24507 ft | 367 kts | 325° |
| 2026-05-07 07:20 | 13.60572 | 121.36955 | 24019 ft | 367 kts | 325° |
| 2026-05-07 07:21 | 13.61956 | 121.35918 | 23686 ft | 367 kts | 325° |
| 2026-05-07 07:21 | 13.64021 | 121.34373 | 23215 ft | 366 kts | 325° |
| 2026-05-07 07:21 | 13.66096 | 121.32822 | 22766 ft | 364 kts | 325° |
| 2026-05-07 07:21 | 13.68808 | 121.30798 | 22195 ft | 361 kts | 325° |
| 2026-05-07 07:22 | 13.70155 | 121.29793 | 21921 ft | 359 kts | 325° |
| 2026-05-07 07:22 | 13.72195 | 121.28271 | 21500 ft | 358 kts | 325° |
| 2026-05-07 07:22 | 13.74203 | 121.26775 | 21084 ft | 356 kts | 325° |
| 2026-05-07 07:22 | 13.76210 | 121.25278 | 20633 ft | 355 kts | 325° |
| 2026-05-07 07:23 | 13.78900 | 121.23272 | 20054 ft | 354 kts | 325° |
| 2026-05-07 07:23 | 13.80898 | 121.21782 | 19642 ft | 352 kts | 325° |
| 2026-05-07 07:23 | 13.82888 | 121.20297 | 19201 ft | 351 kts | 325° |
| 2026-05-07 07:23 | 13.84199 | 121.19318 | 18921 ft | 351 kts | 326° |
| 2026-05-07 07:24 | 13.86831 | 121.17354 | 18357 ft | 349 kts | 325° |
| 2026-05-07 07:24 | 13.88794 | 121.15888 | 17935 ft | 349 kts | 326° |
| 2026-05-07 07:24 | 13.90773 | 121.14411 | 17490 ft | 348 kts | 325° |
| 2026-05-07 07:24 | 13.92075 | 121.13438 | 17197 ft | 347 kts | 325° |
| 2026-05-07 07:25 | 13.95979 | 121.10523 | 16334 ft | 345 kts | 325° |
| 2026-05-07 07:25 | 13.97920 | 121.09072 | 15902 ft | 344 kts | 325° |
| 2026-05-07 07:25 | 14.00516 | 121.07131 | 15326 ft | 343 kts | 325° |
| 2026-05-07 07:26 | 14.01808 | 121.06165 | 15042 ft | 342 kts | 325° |
| 2026-05-07 07:26 | 14.03734 | 121.04725 | 14564 ft | 338 kts | 325° |
| 2026-05-07 07:26 | 14.06225 | 121.02860 | 14038 ft | 324 kts | 325° |
| 2026-05-07 07:26 | 14.08042 | 121.01502 | 13705 ft | 322 kts | 325° |
| 2026-05-07 07:27 | 14.09869 | 121.00135 | 13234 ft | 323 kts | 325° |
| 2026-05-07 07:27 | 14.11089 | 120.99222 | 12964 ft | 322 kts | 325° |
| 2026-05-07 07:27 | 14.12886 | 120.97877 | 12573 ft | 322 kts | 325° |
| 2026-05-07 07:27 | 14.14704 | 120.96516 | 12236 ft | 320 kts | 325° |
| 2026-05-07 07:28 | 14.17072 | 120.94759 | 12159 ft | 302 kts | 328° |
| 2026-05-07 07:28 | 14.18245 | 120.94010 | 12056 ft | 295 kts | 331° |
| 2026-05-07 07:28 | 14.20613 | 120.92607 | 11560 ft | 296 kts | 332° |
| 2026-05-07 07:28 | 14.22422 | 120.91544 | 11169 ft | 298 kts | 332° |
| 2026-05-07 07:29 | 14.23592 | 120.90824 | 10871 ft | 296 kts | 325° |
| 2026-05-07 07:29 | 14.24978 | 120.89279 | 10508 ft | 290 kts | 298° |
| 2026-05-07 07:29 | 14.25566 | 120.87348 | 10176 ft | 283 kts | 273° |
| 2026-05-07 07:29 | 14.25331 | 120.85360 | 9830 ft | 277 kts | 252° |
| 2026-05-07 07:30 | 14.24331 | 120.82905 | 9320 ft | 280 kts | 243° |
| 2026-05-07 07:30 | 14.23727 | 120.81720 | 9056 ft | 282 kts | 241° |
| 2026-05-07 07:30 | 14.22776 | 120.79929 | 8698 ft | 283 kts | 245° |
| 2026-05-07 07:30 | 14.22408 | 120.77319 | 8214 ft | 280 kts | 282° |
| 2026-05-07 07:31 | 14.23156 | 120.75513 | 7862 ft | 275 kts | 309° |
| 2026-05-07 07:31 | 14.24049 | 120.74571 | 7637 ft | 272 kts | 323° |
| 2026-05-07 07:31 | 14.26120 | 120.73116 | 7205 ft | 270 kts | 331° |
| 2026-05-07 07:31 | 14.27207 | 120.72454 | 6970 ft | 271 kts | 332° |
| 2026-05-07 07:32 | 14.29384 | 120.71188 | 6662 ft | 264 kts | 337° |
| 2026-05-07 07:32 | 14.30523 | 120.70821 | 6583 ft | 253 kts | 356° |
| 2026-05-07 07:32 | 14.32729 | 120.71171 | 6463 ft | 232 kts | 27° |
| 2026-05-07 07:32 | 14.33633 | 120.71755 | 6290 ft | 230 kts | 41° |
| 2026-05-07 07:33 | 14.34654 | 120.73001 | 5994 ft | 228 kts | 57° |
| 2026-05-07 07:33 | 14.35772 | 120.74864 | 5582 ft | 229 kts | 60° |
| 2026-05-07 07:33 | 14.36585 | 120.76299 | 5267 ft | 230 kts | 60° |
| 2026-05-07 07:33 | 14.37379 | 120.77732 | 4963 ft | 231 kts | 61° |
| 2026-05-07 07:34 | 14.38181 | 120.79178 | 4650 ft | 232 kts | 61° |
| 2026-05-07 07:34 | 14.38986 | 120.80623 | 4344 ft | 234 kts | 60° |
| 2026-05-07 07:34 | 14.39535 | 120.81607 | 4118 ft | 235 kts | 60° |
| 2026-05-07 07:34 | 14.40344 | 120.83056 | 3815 ft | 235 kts | 60° |
| 2026-05-07 07:35 | 14.41154 | 120.84508 | 3479 ft | 232 kts | 60° |
| 2026-05-07 07:35 | 14.42204 | 120.86400 | 3068 ft | 222 kts | 61° |
| 2026-05-07 07:35 | 14.42961 | 120.87771 | 2776 ft | 216 kts | 61° |
| 2026-05-07 07:35 | 14.43698 | 120.89104 | 2492 ft | 210 kts | 61° |
| 2026-05-07 07:36 | 14.44167 | 120.89947 | 2312 ft | 199 kts | 61° |
| 2026-05-07 07:36 | 14.45023 | 120.91498 | 1997 ft | 178 kts | 61° |
| 2026-05-07 07:36 | 14.45622 | 120.92574 | 1754 ft | 165 kts | 62° |
| 2026-05-07 07:36 | 14.46174 | 120.93565 | 1527 ft | 152 kts | 62° |
| 2026-05-07 07:37 | 14.46512 | 120.94170 | 1386 ft | 141 kts | 63° |
| 2026-05-07 07:37 | 14.47163 | 120.95340 | 1137 ft | 139 kts | 61° |
| 2026-05-07 07:37 | 14.47490 | 120.95924 | 1006 ft | 139 kts | 61° |
| 2026-05-07 07:37 | 14.47975 | 120.96787 | 810 ft | 142 kts | 63° |
| 2026-05-07 07:38 | 14.48655 | 120.97971 | 567 ft | 146 kts | 62° |
| 2026-05-07 07:38 | 14.48993 | 120.98569 | 438 ft | 144 kts | 64° |
| 2026-05-07 07:38 | 14.49482 | 120.99464 | 258 ft | 144 kts | 63° |
| 2026-05-07 07:38 | 14.50131 | 121.00646 | 88 ft | 131 kts | 60° |
| 2026-05-07 07:39 | 14.50408 | 121.01137 | 88 ft | 104 kts | 60° |
| 2026-05-07 07:39 | 14.50777 | 121.01800 | 87 ft | 51 kts | 60° |
| 2026-05-07 07:39 | 14.50893 | 121.02009 | 87 ft | 22 kts | 60° |
| 2026-05-07 07:39 | 14.50943 | 121.02097 | 87 ft | 21 kts | 60° |
| 2026-05-07 07:40 | 14.51051 | 121.02223 | 87 ft | 13 kts | 40° |
| 2026-05-07 07:40 | 14.51075 | 121.02245 | 88 ft | 6 kts | 39° |
| 2026-05-07 07:40 | 14.51119 | 121.02284 | 87 ft | 1 kts | 40° |
| 2026-05-07 07:40 | 14.51128 | 121.02290 | 88 ft | 2 kts | 31° |
| 2026-05-07 07:41 | 14.51142 | 121.02296 | 87 ft | 3 kts | 13° |
| 2026-05-07 07:41 | 14.51172 | 121.02293 | 88 ft | 4 kts | 340° |
| 2026-05-07 07:41 | 14.51189 | 121.02269 | 88 ft | 2 kts | 265° |